Terminal Aerodrome Forecast
Issued by NWS Tampa Bay Area, FL

Home | Current Version | Previous Version | Text Only | Print | Product List | Glossary On
Versions: 1 2 3 4 5 6 7 8 9 10 11 12 13 14
000
FTUS42 KTBW 252300
TAFFMY
TAF
KFMY 252340Z 2600/2624 24005KT P6SM BKN250
     FM260300 VRB04KT P6SM SCT050 BKN250
     FM260700 21008KT P6SM VCSH SCT020 OVC050
     FM261100 24011G17KT P6SM VCSH SCT015 OVC035
      TEMPO 2611/2615 4SM SHRA BKN015
     FM261500 30014G22KT P6SM VCSH SCT015 OVC035
      TEMPO 2615/2618 BKN015
     FM261800 30018G28KT P6SM FEW020 BKN035
     FM262100 30018G28KT P6SM SCT035=

USA.gov is the U.S. government's official web portal to all federal, state and local government web resources and services.